createdAt,value
2022-09-03T00:03:51.782Z,82.75
2022-09-03T00:09:17.668Z,82.93
2022-09-03T00:14:27.176Z,83.21
2022-09-03T00:19:42.557Z,84.43
2022-09-03T00:24:47.686Z,85.51
2022-09-03T00:30:17.128Z,86.26
2022-09-03T00:35:26.126Z,86.74
2022-09-03T00:40:35.464Z,86.83
2022-09-03T00:46:18.395Z,86.88
2022-09-03T00:51:56.559Z,86.82
2022-09-03T00:57:29.820Z,85.37
2022-09-03T01:02:54.472Z,85.07
2022-09-03T01:08:18.846Z,84.71
2022-09-03T01:13:50.379Z,84.77
2022-09-03T01:19:47.028Z,84.64
2022-09-03T01:25:39.248Z,84.68
2022-09-03T01:31:02.832Z,84.40
2022-09-03T01:36:24.723Z,84.42
2022-09-03T01:42:00.889Z,84.54
2022-09-03T01:47:26.683Z,84.64
2022-09-03T01:53:13.228Z,84.52
2022-09-03T01:58:41.054Z,84.47
2022-09-03T02:03:46.186Z,84.54
2022-09-03T02:08:49.191Z,84.71
2022-09-03T02:13:59.974Z,84.95
2022-09-03T02:19:10.987Z,84.69
2022-09-03T02:24:14.210Z,84.54
2022-09-03T02:29:18.072Z,84.86
2022-09-03T02:34:21.047Z,85.50
2022-09-03T02:39:24.106Z,86.40
2022-09-03T02:44:35.312Z,86.31
2022-09-03T02:49:40.947Z,86.14
2022-09-03T02:54:45.835Z,85.81
2022-09-03T02:59:48.866Z,86.43
2022-09-03T03:04:51.941Z,86.81
2022-09-03T03:09:54.993Z,86.58
2022-09-03T03:14:57.961Z,86.60
2022-09-03T03:20:00.969Z,87.37
2022-09-03T03:25:05.901Z,86.63
2022-09-03T03:30:11.237Z,86.10
2022-09-03T03:35:14.550Z,86.12
2022-09-03T03:40:18.120Z,86.22
2022-09-03T03:45:21.306Z,86.31
2022-09-03T03:50:24.280Z,86.14
2022-09-03T03:55:27.288Z,86.23
2022-09-03T04:00:30.837Z,86.39
2022-09-03T04:05:33.922Z,86.74
2022-09-03T04:10:37.463Z,87.13
2022-09-03T04:15:41.172Z,87.71
2022-09-03T04:20:44.716Z,87.18
2022-09-03T04:25:53.474Z,87.50
2022-09-03T04:31:05.826Z,87.76
2022-09-03T04:36:19.403Z,87.79
2022-09-03T04:41:28.567Z,87.69
2022-09-03T04:46:34.527Z,87.61
2022-09-03T04:51:38.613Z,87.36
2022-09-03T04:56:42.022Z,86.93
2022-09-03T05:01:44.948Z,86.61
2022-09-03T05:06:47.906Z,86.68
2022-09-03T05:11:50.888Z,86.29
2022-09-03T05:16:53.917Z,85.81
2022-09-03T05:21:56.821Z,82.96
2022-09-03T05:26:59.777Z,83.32
2022-09-03T05:32:04.179Z,84.35
2022-09-03T05:37:07.227Z,84.70
2022-09-03T05:42:10.230Z,84.84
2022-09-03T05:47:13.208Z,84.57
2022-09-03T05:52:17.012Z,83.87
2022-09-03T05:57:20.008Z,84.40
2022-09-03T06:02:23.777Z,83.99
2022-09-03T06:07:27.894Z,83.01
2022-09-03T06:12:30.873Z,82.22
2022-09-03T06:17:33.900Z,81.18
2022-09-03T06:22:36.802Z,81.89
2022-09-03T06:27:39.761Z,82.32
2022-09-03T06:32:50.759Z,82.05
2022-09-03T06:37:54.129Z,81.87
2022-09-03T06:43:01.018Z,79.45
2022-09-03T06:48:04.160Z,80.78
2022-09-03T06:53:07.149Z,81.07
2022-09-03T06:58:10.983Z,72.79
2022-09-03T07:03:13.950Z,70.64
2022-09-03T07:08:16.906Z,70.24
2022-09-03T07:13:21.077Z,68.04
2022-09-03T07:18:24.115Z,64.94
2022-09-03T07:23:29.107Z,64.26
2022-09-03T07:28:32.784Z,62.26
2022-09-03T07:33:35.862Z,62.45
2022-09-03T07:38:39.014Z,62.19
2022-09-03T07:43:48.414Z,60.15
2022-09-03T07:48:58.822Z,61.63
2022-09-03T07:54:08.119Z,61.31
2022-09-03T07:59:12.537Z,58.18
2022-09-03T08:04:16.393Z,55.37
2022-09-03T08:09:19.397Z,56.15
2022-09-03T08:14:22.373Z,55.03
2022-09-03T08:19:25.370Z,54.42
2022-09-03T08:24:28.289Z,54.62
2022-09-03T08:29:31.618Z,54.97
2022-09-03T08:34:34.567Z,55.13
2022-09-03T08:39:37.774Z,54.11
2022-09-03T08:44:56.935Z,55.03
2022-09-03T08:50:24.989Z,53.42
2022-09-03T08:55:48.444Z,52.21
2022-09-03T09:01:04.218Z,50.77
2022-09-03T09:06:50.996Z,50.13
2022-09-03T09:12:18.791Z,49.49
2022-09-03T09:17:24.989Z,49.90
2022-09-03T09:22:33.445Z,49.11
2022-09-03T09:27:36.461Z,46.58
2022-09-03T09:32:39.651Z,46.10
2022-09-03T09:37:55.965Z,45.94
2022-09-03T09:43:21.571Z,45.51
2022-09-03T09:48:32.784Z,45.35
2022-09-03T09:53:36.335Z,43.83
2022-09-03T09:58:39.329Z,43.37
2022-09-03T10:03:55.424Z,43.68
2022-09-03T10:09:11.832Z,40.71
2022-09-03T10:14:35.456Z,40.41
2022-09-03T10:20:09.390Z,39.60
2022-09-03T10:25:16.724Z,41.78
2022-09-03T10:30:20.151Z,42.49
2022-09-03T10:35:45.885Z,39.48
2022-09-03T10:41:20.241Z,40.99
2022-09-03T10:46:56.829Z,40.71
2022-09-03T10:52:31.125Z,40.71
2022-09-03T10:57:54.586Z,39.85
2022-09-03T11:03:25.142Z,39.54
2022-09-03T11:09:06.352Z,39.83
2022-09-03T11:14:15.484Z,39.72
2022-09-03T11:19:26.070Z,39.41
2022-09-03T11:24:33.337Z,38.40
2022-09-03T11:29:54.997Z,39.04
2022-09-03T11:34:58.326Z,39.69
2022-09-03T11:40:39.139Z,38.24
2022-09-03T11:45:42.313Z,37.76
2022-09-03T11:50:55.802Z,38.04
2022-09-03T11:56:07.531Z,38.57
2022-09-03T12:01:16.206Z,38.72
2022-09-03T12:07:00.592Z,38.65
2022-09-03T12:12:47.948Z,37.84
2022-09-03T12:18:14.942Z,38.28
2022-09-03T12:23:39.947Z,38.74
2022-09-03T12:28:54.790Z,38.00
2022-09-03T12:34:03.647Z,38.59
2022-09-03T12:39:17.095Z,38.97
2022-09-03T12:44:47.952Z,38.91
2022-09-03T12:49:58.101Z,39.24
2022-09-03T12:55:27.488Z,39.33
2022-09-03T13:00:34.867Z,38.51
2022-09-03T13:05:48.188Z,39.19
2022-09-03T13:10:58.523Z,39.04
2022-09-03T13:16:29.513Z,39.15
2022-09-03T13:21:51.264Z,38.60
2022-09-03T13:27:43.529Z,38.17
2022-09-03T13:33:49.202Z,38.81
2022-09-03T13:39:19.025Z,38.63
2022-09-03T13:44:50.322Z,38.53
2022-09-03T13:50:27.078Z,38.90
2022-09-03T13:55:50.711Z,39.12
2022-09-03T14:01:15.441Z,38.66
2022-09-03T14:06:58.258Z,39.12
2022-09-03T14:12:32.008Z,39.41
2022-09-03T14:18:04.796Z,39.47
2022-09-03T14:23:44.848Z,39.90
2022-09-03T14:29:10.928Z,39.60
2022-09-03T14:34:48.290Z,39.89
2022-09-03T14:40:13.601Z,40.57
2022-09-03T14:46:13.295Z,39.62
2022-09-03T14:51:22.091Z,40.17
2022-09-03T14:56:50.552Z,41.42
2022-09-03T15:02:39.647Z,40.56
2022-09-03T15:08:33.922Z,40.35
2022-09-03T15:13:50.306Z,40.78
2022-09-03T15:19:36.726Z,40.31
2022-09-03T15:25:08.246Z,40.44
2022-09-03T15:30:19.268Z,40.63
2022-09-03T15:35:46.051Z,41.07
2022-09-03T15:40:57.067Z,42.10
2022-09-03T15:46:38.073Z,42.35
2022-09-03T15:52:25.822Z,42.49
2022-09-03T15:57:51.788Z,44.31
2022-09-03T16:03:21.744Z,44.58
2022-09-03T16:08:45.256Z,45.67
2022-09-03T16:14:46.660Z,46.06
2022-09-03T16:20:09.108Z,46.87
2022-09-03T16:25:28.987Z,47.35
2022-09-03T16:30:40.901Z,47.97
2022-09-03T16:36:19.041Z,48.47
2022-09-03T16:41:44.245Z,49.06
2022-09-03T16:47:19.180Z,50.19
2022-09-03T16:53:05.420Z,50.94
2022-09-03T16:58:26.509Z,51.92
2022-09-03T17:03:53.378Z,52.63
2022-09-03T17:09:50.114Z,53.34
2022-09-03T17:15:29.409Z,54.53
2022-09-03T17:20:49.212Z,55.90
2022-09-03T17:26:33.512Z,56.67
2022-09-03T17:32:12.040Z,57.44
2022-09-03T17:37:36.246Z,59.63
2022-09-03T17:42:51.607Z,62.79
2022-09-03T17:48:34.516Z,65.57
2022-09-03T17:53:56.453Z,67.38
2022-09-03T17:59:35.290Z,68.44
2022-09-03T18:05:04.660Z,69.03
2022-09-03T18:10:13.433Z,68.99
2022-09-03T18:15:32.452Z,69.49
2022-09-03T18:21:30.660Z,68.98
2022-09-03T18:27:02.833Z,68.06
2022-09-03T18:32:24.596Z,67.43
2022-09-03T18:37:47.013Z,67.25
2022-09-03T18:43:35.656Z,66.94
2022-09-03T18:49:18.511Z,66.71
2022-09-03T18:55:08.179Z,66.40
2022-09-03T19:00:34.800Z,66.39
2022-09-03T19:06:24.025Z,66.36
2022-09-03T19:11:55.819Z,66.32
2022-09-03T19:17:34.552Z,66.25
2022-09-03T19:23:00.941Z,66.46
2022-09-03T19:28:32.966Z,66.88
2022-09-03T19:34:20.901Z,67.21
2022-09-03T19:40:23.425Z,67.30
2022-09-03T19:46:37.937Z,67.44
2022-09-03T19:52:41.922Z,68.02
2022-09-03T19:58:32.521Z,68.27
2022-09-03T20:03:55.530Z,68.82
2022-09-03T20:09:27.591Z,69.04
2022-09-03T20:14:34.894Z,69.23
2022-09-03T20:20:07.468Z,69.51
2022-09-03T20:25:35.274Z,69.79
2022-09-03T20:30:54.934Z,70.13
2022-09-03T20:36:29.070Z,70.47
2022-09-03T20:42:12.289Z,70.56
2022-09-03T20:47:40.110Z,70.82
2022-09-03T20:53:13.284Z,71.07
2022-09-03T20:59:04.318Z,71.21
2022-09-03T21:04:49.500Z,71.61
2022-09-03T21:10:08.114Z,72.00
2022-09-03T21:15:35.703Z,72.40
2022-09-03T21:20:58.872Z,72.64
2022-09-03T21:26:15.324Z,73.03
2022-09-03T21:31:32.039Z,73.07
2022-09-03T21:36:43.971Z,73.41
2022-09-03T21:41:58.633Z,73.54
2022-09-03T21:47:14.942Z,73.71
2022-09-03T21:52:27.360Z,73.92
2022-09-03T21:58:26.255Z,74.01
2022-09-03T22:03:29.823Z,74.10
2022-09-03T22:09:03.223Z,74.36
2022-09-03T22:14:16.590Z,74.44
2022-09-03T22:19:19.677Z,74.84
2022-09-03T22:25:02.104Z,75.25
2022-09-03T22:30:21.421Z,75.32
